sensor_id;sensor_type;location;lat;lon;timestamp;P1;durP1;ratioP1;P2;durP2;ratioP2
4460;SDS011;2243;48.812;9.232;2022-12-18T00:00:18;54.83;;;22.80;;
4460;SDS011;2243;48.812;9.232;2022-12-18T00:02:49;40.67;;;22.10;;
4460;SDS011;2243;48.812;9.232;2022-12-18T00:05:20;53.77;;;23.33;;
4460;SDS011;2243;48.812;9.232;2022-12-18T00:07:51;54.90;;;23.50;;
4460;SDS011;2243;48.812;9.232;2022-12-18T00:10:22;48.10;;;22.80;;
4460;SDS011;2243;48.812;9.232;2022-12-18T00:12:53;49.53;;;23.87;;
4460;SDS011;2243;48.812;9.232;2022-12-18T00:15:24;44.07;;;23.07;;
4460;SDS011;2243;48.812;9.232;2022-12-18T00:17:55;47.47;;;22.90;;
4460;SDS011;2243;48.812;9.232;2022-12-18T00:20:28;57.77;;;22.63;;
4460;SDS011;2243;48.812;9.232;2022-12-18T00:22:59;61.40;;;24.23;;
4460;SDS011;2243;48.812;9.232;2022-12-18T00:25:32;43.37;;;23.10;;
4460;SDS011;2243;48.812;9.232;2022-12-18T00:28:04;41.50;;;22.57;;
4460;SDS011;2243;48.812;9.232;2022-12-18T00:30:35;39.37;;;21.73;;
4460;SDS011;2243;48.812;9.232;2022-12-18T00:33:06;52.00;;;23.07;;
4460;SDS011;2243;48.812;9.232;2022-12-18T00:35:38;49.10;;;21.87;;
4460;SDS011;2243;48.812;9.232;2022-12-18T00:38:09;51.60;;;22.53;;
4460;SDS011;2243;48.812;9.232;2022-12-18T00:40:40;47.33;;;24.17;;
4460;SDS011;2243;48.812;9.232;2022-12-18T00:43:11;44.03;;;22.30;;
4460;SDS011;2243;48.812;9.232;2022-12-18T00:45:42;40.63;;;21.70;;
4460;SDS011;2243;48.812;9.232;2022-12-18T00:48:14;52.17;;;22.57;;
4460;SDS011;2243;48.812;9.232;2022-12-18T00:50:45;41.97;;;20.17;;
4460;SDS011;2243;48.812;9.232;2022-12-18T00:53:18;46.10;;;22.93;;
4460;SDS011;2243;48.812;9.232;2022-12-18T00:55:49;38.20;;;22.00;;
4460;SDS011;2243;48.812;9.232;2022-12-18T00:58:20;42.80;;;20.70;;
4460;SDS011;2243;48.812;9.232;2022-12-18T01:00:51;40.10;;;20.03;;
4460;SDS011;2243;48.812;9.232;2022-12-18T01:03:22;47.60;;;24.20;;
4460;SDS011;2243;48.812;9.232;2022-12-18T01:05:52;48.03;;;22.33;;
4460;SDS011;2243;48.812;9.232;2022-12-18T01:08:23;45.20;;;22.57;;
4460;SDS011;2243;48.812;9.232;2022-12-18T01:10:55;49.00;;;24.57;;
4460;SDS011;2243;48.812;9.232;2022-12-18T01:13:26;47.23;;;21.73;;
4460;SDS011;2243;48.812;9.232;2022-12-18T01:15:57;43.83;;;22.47;;
4460;SDS011;2243;48.812;9.232;2022-12-18T01:18:28;46.93;;;24.63;;
4460;SDS011;2243;48.812;9.232;2022-12-18T01:20:59;45.37;;;22.77;;
4460;SDS011;2243;48.812;9.232;2022-12-18T01:23:44;44.30;;;22.33;;
4460;SDS011;2243;48.812;9.232;2022-12-18T01:26:15;49.63;;;21.97;;
4460;SDS011;2243;48.812;9.232;2022-12-18T01:28:46;50.90;;;23.10;;
4460;SDS011;2243;48.812;9.232;2022-12-18T01:31:19;54.53;;;23.03;;
4460;SDS011;2243;48.812;9.232;2022-12-18T01:33:52;45.00;;;21.63;;
4460;SDS011;2243;48.812;9.232;2022-12-18T01:36:25;48.97;;;22.23;;
4460;SDS011;2243;48.812;9.232;2022-12-18T01:39:00;42.97;;;21.03;;
4460;SDS011;2243;48.812;9.232;2022-12-18T01:41:34;45.77;;;22.60;;
4460;SDS011;2243;48.812;9.232;2022-12-18T01:50:19;41.40;;;19.33;;
4460;SDS011;2243;48.812;9.232;2022-12-18T01:52:53;45.03;;;19.67;;
4460;SDS011;2243;48.812;9.232;2022-12-18T01:55:39;48.07;;;21.17;;
4460;SDS011;2243;48.812;9.232;2022-12-18T01:58:27;43.63;;;19.50;;
4460;SDS011;2243;48.812;9.232;2022-12-18T02:01:03;41.43;;;20.70;;
4460;SDS011;2243;48.812;9.232;2022-12-18T02:03:34;38.97;;;20.53;;
4460;SDS011;2243;48.812;9.232;2022-12-18T02:06:09;41.33;;;20.17;;
4460;SDS011;2243;48.812;9.232;2022-12-18T02:11:49;36.67;;;19.67;;
4460;SDS011;2243;48.812;9.232;2022-12-18T02:14:38;54.23;;;20.30;;
4460;SDS011;2243;48.812;9.232;2022-12-18T02:17:11;51.17;;;22.10;;
4460;SDS011;2243;48.812;9.232;2022-12-18T02:23:06;38.07;;;18.07;;
4460;SDS011;2243;48.812;9.232;2022-12-18T02:28:42;39.90;;;19.07;;
4460;SDS011;2243;48.812;9.232;2022-12-18T02:31:23;42.80;;;16.97;;
4460;SDS011;2243;48.812;9.232;2022-12-18T02:33:58;38.47;;;17.03;;
4460;SDS011;2243;48.812;9.232;2022-12-18T02:36:36;41.27;;;19.90;;
4460;SDS011;2243;48.812;9.232;2022-12-18T02:39:12;37.93;;;16.30;;
4460;SDS011;2243;48.812;9.232;2022-12-18T02:41:45;42.20;;;20.20;;
4460;SDS011;2243;48.812;9.232;2022-12-18T02:44:18;35.53;;;18.80;;
4460;SDS011;2243;48.812;9.232;2022-12-18T02:46:50;44.37;;;21.63;;
4460;SDS011;2243;48.812;9.232;2022-12-18T02:52:18;36.67;;;18.63;;
4460;SDS011;2243;48.812;9.232;2022-12-18T02:58:20;36.40;;;18.80;;
4460;SDS011;2243;48.812;9.232;2022-12-18T03:00:55;35.83;;;18.20;;
4460;SDS011;2243;48.812;9.232;2022-12-18T03:03:34;39.70;;;16.90;;
4460;SDS011;2243;48.812;9.232;2022-12-18T03:06:18;33.20;;;17.20;;
4460;SDS011;2243;48.812;9.232;2022-12-18T03:08:58;37.17;;;17.17;;
4460;SDS011;2243;48.812;9.232;2022-12-18T03:11:39;42.70;;;16.67;;
4460;SDS011;2243;48.812;9.232;2022-12-18T03:14:34;43.00;;;19.13;;
4460;SDS011;2243;48.812;9.232;2022-12-18T03:17:09;34.07;;;17.10;;
4460;SDS011;2243;48.812;9.232;2022-12-18T03:19:44;37.07;;;17.90;;
4460;SDS011;2243;48.812;9.232;2022-12-18T03:22:18;42.03;;;17.00;;
4460;SDS011;2243;48.812;9.232;2022-12-18T03:24:53;40.87;;;17.27;;
4460;SDS011;2243;48.812;9.232;2022-12-18T03:27:26;42.47;;;17.13;;
4460;SDS011;2243;48.812;9.232;2022-12-18T03:30:05;35.37;;;16.40;;
4460;SDS011;2243;48.812;9.232;2022-12-18T03:32:52;35.00;;;17.40;;
4460;SDS011;2243;48.812;9.232;2022-12-18T03:35:43;26.90;;;16.93;;
4460;SDS011;2243;48.812;9.232;2022-12-18T03:38:14;33.67;;;16.80;;
4460;SDS011;2243;48.812;9.232;2022-12-18T03:49:35;29.23;;;14.93;;
4460;SDS011;2243;48.812;9.232;2022-12-18T03:52:26;27.10;;;14.40;;
4460;SDS011;2243;48.812;9.232;2022-12-18T03:55:08;30.60;;;15.13;;
4460;SDS011;2243;48.812;9.232;2022-12-18T03:57:40;23.90;;;15.77;;
4460;SDS011;2243;48.812;9.232;2022-12-18T04:00:15;26.60;;;16.20;;
4460;SDS011;2243;48.812;9.232;2022-12-18T04:02:49;31.27;;;16.33;;
4460;SDS011;2243;48.812;9.232;2022-12-18T04:05:24;26.50;;;14.53;;
4460;SDS011;2243;48.812;9.232;2022-12-18T04:07:57;26.37;;;14.30;;
4460;SDS011;2243;48.812;9.232;2022-12-18T04:10:28;30.80;;;16.87;;
4460;SDS011;2243;48.812;9.232;2022-12-18T04:12:59;32.27;;;16.40;;
4460;SDS011;2243;48.812;9.232;2022-12-18T04:15:31;33.97;;;17.67;;
4460;SDS011;2243;48.812;9.232;2022-12-18T04:18:05;41.13;;;16.80;;
4460;SDS011;2243;48.812;9.232;2022-12-18T04:20:38;35.97;;;18.63;;
4460;SDS011;2243;48.812;9.232;2022-12-18T04:23:09;29.93;;;15.57;;
4460;SDS011;2243;48.812;9.232;2022-12-18T04:25:40;36.23;;;17.50;;
4460;SDS011;2243;48.812;9.232;2022-12-18T04:28:10;31.50;;;16.90;;
4460;SDS011;2243;48.812;9.232;2022-12-18T04:30:41;42.30;;;18.40;;
4460;SDS011;2243;48.812;9.232;2022-12-18T04:33:18;38.07;;;18.33;;
4460;SDS011;2243;48.812;9.232;2022-12-18T04:35:49;41.10;;;18.77;;
4460;SDS011;2243;48.812;9.232;2022-12-18T04:38:20;36.17;;;16.80;;
4460;SDS011;2243;48.812;9.232;2022-12-18T04:40:51;32.63;;;16.03;;
4460;SDS011;2243;48.812;9.232;2022-12-18T04:43:22;31.47;;;16.77;;
4460;SDS011;2243;48.812;9.232;2022-12-18T04:45:53;37.63;;;17.70;;
4460;SDS011;2243;48.812;9.232;2022-12-18T04:48:23;27.63;;;14.77;;
4460;SDS011;2243;48.812;9.232;2022-12-18T04:50:54;36.37;;;18.00;;
4460;SDS011;2243;48.812;9.232;2022-12-18T04:53:25;37.83;;;17.57;;
4460;SDS011;2243;48.812;9.232;2022-12-18T04:56:03;31.27;;;15.80;;
4460;SDS011;2243;48.812;9.232;2022-12-18T04:58:39;37.23;;;15.37;;
4460;SDS011;2243;48.812;9.232;2022-12-18T05:01:12;31.33;;;17.80;;
4460;SDS011;2243;48.812;9.232;2022-12-18T05:03:47;33.77;;;18.67;;
4460;SDS011;2243;48.812;9.232;2022-12-18T05:06:18;34.80;;;17.17;;
4460;SDS011;2243;48.812;9.232;2022-12-18T05:08:49;28.30;;;15.53;;
4460;SDS011;2243;48.812;9.232;2022-12-18T05:11:20;28.00;;;15.67;;
4460;SDS011;2243;48.812;9.232;2022-12-18T05:13:51;25.07;;;14.67;;
4460;SDS011;2243;48.812;9.232;2022-12-18T05:16:22;29.17;;;14.70;;
4460;SDS011;2243;48.812;9.232;2022-12-18T05:18:53;41.73;;;16.40;;
4460;SDS011;2243;48.812;9.232;2022-12-18T05:21:24;37.90;;;16.13;;
4460;SDS011;2243;48.812;9.232;2022-12-18T05:23:55;30.87;;;15.67;;
4460;SDS011;2243;48.812;9.232;2022-12-18T05:26:26;24.93;;;13.83;;
4460;SDS011;2243;48.812;9.232;2022-12-18T05:28:56;32.93;;;14.90;;
4460;SDS011;2243;48.812;9.232;2022-12-18T05:31:27;23.90;;;14.87;;
4460;SDS011;2243;48.812;9.232;2022-12-18T05:34:05;21.63;;;12.70;;
4460;SDS011;2243;48.812;9.232;2022-12-18T05:36:36;30.57;;;14.53;;
4460;SDS011;2243;48.812;9.232;2022-12-18T05:39:07;28.40;;;15.63;;
4460;SDS011;2243;48.812;9.232;2022-12-18T05:41:38;30.93;;;14.20;;
4460;SDS011;2243;48.812;9.232;2022-12-18T05:44:10;26.47;;;15.27;;
4460;SDS011;2243;48.812;9.232;2022-12-18T05:46:41;33.37;;;13.67;;
4460;SDS011;2243;48.812;9.232;2022-12-18T05:49:12;22.93;;;14.00;;
4460;SDS011;2243;48.812;9.232;2022-12-18T05:51:43;30.03;;;14.23;;
4460;SDS011;2243;48.812;9.232;2022-12-18T05:54:15;30.03;;;15.53;;
4460;SDS011;2243;48.812;9.232;2022-12-18T05:56:46;35.50;;;16.53;;
4460;SDS011;2243;48.812;9.232;2022-12-18T05:59:18;33.80;;;15.03;;
4460;SDS011;2243;48.812;9.232;2022-12-18T06:01:49;23.20;;;14.23;;
4460;SDS011;2243;48.812;9.232;2022-12-18T06:04:20;26.03;;;14.17;;
4460;SDS011;2243;48.812;9.232;2022-12-18T06:06:51;29.33;;;14.50;;
4460;SDS011;2243;48.812;9.232;2022-12-18T06:09:22;22.97;;;13.00;;
4460;SDS011;2243;48.812;9.232;2022-12-18T06:11:53;28.23;;;14.80;;
4460;SDS011;2243;48.812;9.232;2022-12-18T06:14:24;26.23;;;14.77;;
4460;SDS011;2243;48.812;9.232;2022-12-18T06:16:55;33.73;;;15.40;;
4460;SDS011;2243;48.812;9.232;2022-12-18T06:19:26;22.90;;;13.80;;
4460;SDS011;2243;48.812;9.232;2022-12-18T06:21:57;30.37;;;15.33;;
4460;SDS011;2243;48.812;9.232;2022-12-18T06:24:29;27.83;;;13.97;;
4460;SDS011;2243;48.812;9.232;2022-12-18T06:27:00;28.27;;;14.67;;
4460;SDS011;2243;48.812;9.232;2022-12-18T06:29:32;21.33;;;13.77;;
4460;SDS011;2243;48.812;9.232;2022-12-18T06:32:03;22.53;;;12.30;;
4460;SDS011;2243;48.812;9.232;2022-12-18T06:34:36;30.97;;;15.20;;
4460;SDS011;2243;48.812;9.232;2022-12-18T06:37:07;34.63;;;14.03;;
4460;SDS011;2243;48.812;9.232;2022-12-18T06:39:38;23.93;;;12.87;;
4460;SDS011;2243;48.812;9.232;2022-12-18T06:42:09;28.07;;;14.40;;
4460;SDS011;2243;48.812;9.232;2022-12-18T06:44:40;24.13;;;13.00;;
4460;SDS011;2243;48.812;9.232;2022-12-18T06:47:11;27.50;;;13.53;;
4460;SDS011;2243;48.812;9.232;2022-12-18T06:49:42;26.60;;;14.43;;
4460;SDS011;2243;48.812;9.232;2022-12-18T06:52:13;26.67;;;15.27;;
4460;SDS011;2243;48.812;9.232;2022-12-18T06:54:44;23.40;;;14.60;;
4460;SDS011;2243;48.812;9.232;2022-12-18T06:57:15;23.60;;;11.97;;
4460;SDS011;2243;48.812;9.232;2022-12-18T06:59:46;23.10;;;12.70;;
4460;SDS011;2243;48.812;9.232;2022-12-18T07:02:17;20.90;;;12.83;;
4460;SDS011;2243;48.812;9.232;2022-12-18T07:04:49;23.63;;;14.87;;
4460;SDS011;2243;48.812;9.232;2022-12-18T07:07:20;26.20;;;13.43;;
4460;SDS011;2243;48.812;9.232;2022-12-18T07:09:51;25.53;;;14.10;;
4460;SDS011;2243;48.812;9.232;2022-12-18T07:12:22;24.33;;;13.57;;
4460;SDS011;2243;48.812;9.232;2022-12-18T07:14:53;26.07;;;13.73;;
4460;SDS011;2243;48.812;9.232;2022-12-18T07:17:24;25.13;;;12.50;;
4460;SDS011;2243;48.812;9.232;2022-12-18T07:19:55;25.53;;;13.63;;
4460;SDS011;2243;48.812;9.232;2022-12-18T07:22:26;31.17;;;15.07;;
4460;SDS011;2243;48.812;9.232;2022-12-18T07:24:57;24.13;;;12.37;;
4460;SDS011;2243;48.812;9.232;2022-12-18T07:27:28;29.07;;;14.77;;
4460;SDS011;2243;48.812;9.232;2022-12-18T07:30:00;22.87;;;12.87;;
4460;SDS011;2243;48.812;9.232;2022-12-18T07:32:31;25.63;;;13.37;;
4460;SDS011;2243;48.812;9.232;2022-12-18T07:35:02;27.83;;;14.80;;
4460;SDS011;2243;48.812;9.232;2022-12-18T07:37:33;27.73;;;14.63;;
4460;SDS011;2243;48.812;9.232;2022-12-18T07:40:04;30.03;;;13.50;;
4460;SDS011;2243;48.812;9.232;2022-12-18T07:42:36;23.50;;;14.13;;
4460;SDS011;2243;48.812;9.232;2022-12-18T07:45:07;22.90;;;14.03;;
4460;SDS011;2243;48.812;9.232;2022-12-18T07:47:39;26.90;;;14.80;;
4460;SDS011;2243;48.812;9.232;2022-12-18T07:50:11;33.10;;;13.70;;
4460;SDS011;2243;48.812;9.232;2022-12-18T07:52:43;23.33;;;13.90;;
4460;SDS011;2243;48.812;9.232;2022-12-18T07:55:14;22.73;;;12.63;;
4460;SDS011;2243;48.812;9.232;2022-12-18T07:57:45;30.13;;;15.77;;
4460;SDS011;2243;48.812;9.232;2022-12-18T08:00:23;25.30;;;14.20;;
4460;SDS011;2243;48.812;9.232;2022-12-18T08:02:54;33.83;;;14.87;;
4460;SDS011;2243;48.812;9.232;2022-12-18T08:05:25;21.77;;;12.53;;
4460;SDS011;2243;48.812;9.232;2022-12-18T08:07:56;22.83;;;13.83;;
4460;SDS011;2243;48.812;9.232;2022-12-18T08:10:28;24.97;;;14.10;;
4460;SDS011;2243;48.812;9.232;2022-12-18T08:12:59;24.70;;;15.40;;
4460;SDS011;2243;48.812;9.232;2022-12-18T08:15:34;26.13;;;12.70;;
4460;SDS011;2243;48.812;9.232;2022-12-18T08:18:05;23.57;;;14.70;;
4460;SDS011;2243;48.812;9.232;2022-12-18T08:20:43;28.30;;;15.50;;
4460;SDS011;2243;48.812;9.232;2022-12-18T08:23:13;29.93;;;15.57;;
4460;SDS011;2243;48.812;9.232;2022-12-18T08:25:44;35.17;;;16.27;;
4460;SDS011;2243;48.812;9.232;2022-12-18T08:28:15;25.80;;;14.37;;
4460;SDS011;2243;48.812;9.232;2022-12-18T08:30:50;27.67;;;14.00;;
4460;SDS011;2243;48.812;9.232;2022-12-18T08:33:22;29.27;;;14.83;;
4460;SDS011;2243;48.812;9.232;2022-12-18T08:35:57;25.43;;;14.47;;
4460;SDS011;2243;48.812;9.232;2022-12-18T08:38:29;26.70;;;14.70;;
4460;SDS011;2243;48.812;9.232;2022-12-18T08:41:03;28.50;;;14.00;;
4460;SDS011;2243;48.812;9.232;2022-12-18T08:43:40;28.60;;;15.40;;
4460;SDS011;2243;48.812;9.232;2022-12-18T08:46:32;31.27;;;14.70;;
4460;SDS011;2243;48.812;9.232;2022-12-18T08:49:10;30.97;;;15.63;;
4460;SDS011;2243;48.812;9.232;2022-12-18T08:51:41;31.90;;;15.77;;
4460;SDS011;2243;48.812;9.232;2022-12-18T08:54:12;24.63;;;14.37;;
4460;SDS011;2243;48.812;9.232;2022-12-18T08:56:44;29.13;;;15.50;;
4460;SDS011;2243;48.812;9.232;2022-12-18T08:59:15;21.57;;;13.97;;
4460;SDS011;2243;48.812;9.232;2022-12-18T09:01:49;37.53;;;16.10;;
4460;SDS011;2243;48.812;9.232;2022-12-18T09:04:20;33.37;;;15.87;;
4460;SDS011;2243;48.812;9.232;2022-12-18T09:06:52;29.30;;;14.73;;
4460;SDS011;2243;48.812;9.232;2022-12-18T09:09:23;27.60;;;15.03;;
4460;SDS011;2243;48.812;9.232;2022-12-18T09:11:56;31.60;;;16.00;;
4460;SDS011;2243;48.812;9.232;2022-12-18T09:14:27;25.27;;;14.53;;
4460;SDS011;2243;48.812;9.232;2022-12-18T09:16:58;33.77;;;16.97;;
4460;SDS011;2243;48.812;9.232;2022-12-18T09:19:29;29.27;;;16.23;;
4460;SDS011;2243;48.812;9.232;2022-12-18T09:22:00;33.63;;;16.40;;
4460;SDS011;2243;48.812;9.232;2022-12-18T09:24:31;27.00;;;15.50;;
4460;SDS011;2243;48.812;9.232;2022-12-18T09:27:02;30.67;;;16.40;;
4460;SDS011;2243;48.812;9.232;2022-12-18T09:29:33;28.33;;;15.53;;
4460;SDS011;2243;48.812;9.232;2022-12-18T09:32:04;25.30;;;15.33;;
4460;SDS011;2243;48.812;9.232;2022-12-18T09:34:35;33.97;;;17.20;;
4460;SDS011;2243;48.812;9.232;2022-12-18T09:37:06;33.67;;;15.70;;
4460;SDS011;2243;48.812;9.232;2022-12-18T09:39:37;33.60;;;16.27;;
4460;SDS011;2243;48.812;9.232;2022-12-18T09:42:11;33.00;;;17.30;;
4460;SDS011;2243;48.812;9.232;2022-12-18T09:44:53;29.10;;;17.00;;
4460;SDS011;2243;48.812;9.232;2022-12-18T09:47:28;31.40;;;16.17;;
4460;SDS011;2243;48.812;9.232;2022-12-18T09:50:13;31.90;;;18.07;;
4460;SDS011;2243;48.812;9.232;2022-12-18T09:52:57;32.93;;;15.60;;
4460;SDS011;2243;48.812;9.232;2022-12-18T09:55:37;32.40;;;16.77;;
4460;SDS011;2243;48.812;9.232;2022-12-18T10:01:11;32.33;;;17.60;;
4460;SDS011;2243;48.812;9.232;2022-12-18T10:03:53;36.90;;;19.10;;
4460;SDS011;2243;48.812;9.232;2022-12-18T10:06:36;31.43;;;16.33;;
4460;SDS011;2243;48.812;9.232;2022-12-18T10:12:45;39.00;;;19.77;;
4460;SDS011;2243;48.812;9.232;2022-12-18T10:21:32;36.17;;;18.57;;
4460;SDS011;2243;48.812;9.232;2022-12-18T10:24:15;34.97;;;17.40;;
4460;SDS011;2243;48.812;9.232;2022-12-18T10:27:12;30.63;;;16.63;;
4460;SDS011;2243;48.812;9.232;2022-12-18T10:29:46;32.17;;;17.03;;
4460;SDS011;2243;48.812;9.232;2022-12-18T10:32:19;29.00;;;17.53;;
4460;SDS011;2243;48.812;9.232;2022-12-18T10:34:54;33.07;;;18.80;;
4460;SDS011;2243;48.812;9.232;2022-12-18T10:37:30;27.33;;;16.77;;
4460;SDS011;2243;48.812;9.232;2022-12-18T10:40:06;35.30;;;18.20;;
4460;SDS011;2243;48.812;9.232;2022-12-18T10:51:10;35.90;;;17.30;;
4460;SDS011;2243;48.812;9.232;2022-12-18T10:54:18;31.80;;;16.43;;
4460;SDS011;2243;48.812;9.232;2022-12-18T10:56:53;30.30;;;15.90;;
4460;SDS011;2243;48.812;9.232;2022-12-18T10:59:57;32.93;;;15.23;;
4460;SDS011;2243;48.812;9.232;2022-12-18T11:02:34;36.20;;;16.63;;
4460;SDS011;2243;48.812;9.232;2022-12-18T11:05:29;25.87;;;14.70;;
4460;SDS011;2243;48.812;9.232;2022-12-18T11:08:04;24.87;;;14.83;;
4460;SDS011;2243;48.812;9.232;2022-12-18T11:10:35;26.20;;;14.87;;
4460;SDS011;2243;48.812;9.232;2022-12-18T11:15:47;29.07;;;15.80;;
4460;SDS011;2243;48.812;9.232;2022-12-18T11:18:24;35.23;;;15.97;;
4460;SDS011;2243;48.812;9.232;2022-12-18T11:21:06;33.13;;;17.00;;
4460;SDS011;2243;48.812;9.232;2022-12-18T11:23:52;31.90;;;16.50;;
4460;SDS011;2243;48.812;9.232;2022-12-18T11:26:33;28.87;;;16.07;;
4460;SDS011;2243;48.812;9.232;2022-12-18T11:29:10;35.77;;;16.90;;
4460;SDS011;2243;48.812;9.232;2022-12-18T11:31:49;35.50;;;18.13;;
4460;SDS011;2243;48.812;9.232;2022-12-18T11:34:22;29.93;;;15.87;;
4460;SDS011;2243;48.812;9.232;2022-12-18T11:36:59;38.30;;;17.57;;
4460;SDS011;2243;48.812;9.232;2022-12-18T11:39:37;29.93;;;16.43;;
4460;SDS011;2243;48.812;9.232;2022-12-18T11:42:18;31.43;;;16.63;;
4460;SDS011;2243;48.812;9.232;2022-12-18T11:44:58;35.90;;;18.57;;
4460;SDS011;2243;48.812;9.232;2022-12-18T11:47:38;38.90;;;18.10;;
4460;SDS011;2243;48.812;9.232;2022-12-18T11:50:33;30.40;;;17.50;;
4460;SDS011;2243;48.812;9.232;2022-12-18T11:53:20;31.80;;;17.73;;
4460;SDS011;2243;48.812;9.232;2022-12-18T11:55:56;36.57;;;19.47;;
4460;SDS011;2243;48.812;9.232;2022-12-18T12:17:07;33.97;;;18.97;;
4460;SDS011;2243;48.812;9.232;2022-12-18T12:20:20;34.30;;;17.00;;
4460;SDS011;2243;48.812;9.232;2022-12-18T12:27:05;33.73;;;19.00;;
4460;SDS011;2243;48.812;9.232;2022-12-18T12:30:05;39.40;;;18.33;;
4460;SDS011;2243;48.812;9.232;2022-12-18T12:39:32;43.07;;;19.77;;
4460;SDS011;2243;48.812;9.232;2022-12-18T12:42:20;32.60;;;18.67;;
4460;SDS011;2243;48.812;9.232;2022-12-18T12:45:40;34.60;;;19.50;;
4460;SDS011;2243;48.812;9.232;2022-12-18T12:48:41;35.93;;;19.97;;
4460;SDS011;2243;48.812;9.232;2022-12-18T12:51:19;39.87;;;21.17;;
4460;SDS011;2243;48.812;9.232;2022-12-18T12:53:56;36.63;;;20.00;;
4460;SDS011;2243;48.812;9.232;2022-12-18T12:56:39;39.40;;;19.90;;
4460;SDS011;2243;48.812;9.232;2022-12-18T13:02:43;34.57;;;19.07;;
4460;SDS011;2243;48.812;9.232;2022-12-18T13:05:48;37.87;;;18.10;;
4460;SDS011;2243;48.812;9.232;2022-12-18T13:08:31;37.43;;;18.13;;
4460;SDS011;2243;48.812;9.232;2022-12-18T13:11:34;37.87;;;21.10;;
4460;SDS011;2243;48.812;9.232;2022-12-18T13:14:36;37.40;;;20.67;;
4460;SDS011;2243;48.812;9.232;2022-12-18T13:17:27;36.53;;;17.77;;
4460;SDS011;2243;48.812;9.232;2022-12-18T13:22:47;32.33;;;17.13;;
4460;SDS011;2243;48.812;9.232;2022-12-18T13:28:12;35.03;;;18.50;;
4460;SDS011;2243;48.812;9.232;2022-12-18T13:36:30;35.30;;;18.47;;
4460;SDS011;2243;48.812;9.232;2022-12-18T13:39:20;33.70;;;19.50;;
4460;SDS011;2243;48.812;9.232;2022-12-18T13:44:38;38.43;;;19.90;;
4460;SDS011;2243;48.812;9.232;2022-12-18T13:50:25;32.87;;;18.47;;
4460;SDS011;2243;48.812;9.232;2022-12-18T13:53:04;35.30;;;18.00;;
4460;SDS011;2243;48.812;9.232;2022-12-18T13:55:35;34.83;;;17.80;;
4460;SDS011;2243;48.812;9.232;2022-12-18T13:58:11;35.07;;;18.70;;
4460;SDS011;2243;48.812;9.232;2022-12-18T14:00:43;35.33;;;17.13;;
4460;SDS011;2243;48.812;9.232;2022-12-18T14:03:17;29.50;;;18.00;;
4460;SDS011;2243;48.812;9.232;2022-12-18T14:06:04;35.63;;;18.13;;
4460;SDS011;2243;48.812;9.232;2022-12-18T14:08:39;34.43;;;18.57;;
4460;SDS011;2243;48.812;9.232;2022-12-18T14:11:22;36.33;;;18.73;;
4460;SDS011;2243;48.812;9.232;2022-12-18T14:13:56;37.10;;;17.90;;
4460;SDS011;2243;48.812;9.232;2022-12-18T14:16:27;40.03;;;18.73;;
4460;SDS011;2243;48.812;9.232;2022-12-18T14:18:59;33.03;;;18.07;;
4460;SDS011;2243;48.812;9.232;2022-12-18T14:21:47;34.57;;;19.13;;
4460;SDS011;2243;48.812;9.232;2022-12-18T14:24:21;36.40;;;18.30;;
4460;SDS011;2243;48.812;9.232;2022-12-18T14:26:52;37.60;;;18.20;;
4460;SDS011;2243;48.812;9.232;2022-12-18T14:29:27;35.43;;;19.73;;
4460;SDS011;2243;48.812;9.232;2022-12-18T14:32:06;37.33;;;17.83;;
4460;SDS011;2243;48.812;9.232;2022-12-18T14:34:50;38.10;;;18.10;;
4460;SDS011;2243;48.812;9.232;2022-12-18T14:37:32;30.33;;;16.40;;
4460;SDS011;2243;48.812;9.232;2022-12-18T14:40:03;34.83;;;18.47;;
4460;SDS011;2243;48.812;9.232;2022-12-18T14:42:40;30.30;;;16.70;;
4460;SDS011;2243;48.812;9.232;2022-12-18T14:48:15;40.17;;;19.17;;
4460;SDS011;2243;48.812;9.232;2022-12-18T14:50:56;37.10;;;19.40;;
4460;SDS011;2243;48.812;9.232;2022-12-18T14:53:33;32.43;;;20.80;;
4460;SDS011;2243;48.812;9.232;2022-12-18T14:56:22;39.17;;;21.53;;
4460;SDS011;2243;48.812;9.232;2022-12-18T14:59:00;44.33;;;23.53;;
4460;SDS011;2243;48.812;9.232;2022-12-18T15:02:18;57.00;;;32.53;;
4460;SDS011;2243;48.812;9.232;2022-12-18T15:04:41;43.27;;;20.87;;
4460;SDS011;2243;48.812;9.232;2022-12-18T15:07:15;51.10;;;27.80;;
4460;SDS011;2243;48.812;9.232;2022-12-18T15:23:19;41.37;;;23.20;;
4460;SDS011;2243;48.812;9.232;2022-12-18T15:26:07;43.53;;;22.00;;
4460;SDS011;2243;48.812;9.232;2022-12-18T15:28:50;39.33;;;21.00;;
4460;SDS011;2243;48.812;9.232;2022-12-18T15:31:33;38.77;;;21.50;;
4460;SDS011;2243;48.812;9.232;2022-12-18T15:34:09;43.40;;;23.80;;
4460;SDS011;2243;48.812;9.232;2022-12-18T15:36:43;44.80;;;22.03;;
4460;SDS011;2243;48.812;9.232;2022-12-18T15:39:14;38.83;;;21.53;;
4460;SDS011;2243;48.812;9.232;2022-12-18T15:41:45;37.43;;;21.80;;
4460;SDS011;2243;48.812;9.232;2022-12-18T15:44:35;40.83;;;21.80;;
4460;SDS011;2243;48.812;9.232;2022-12-18T15:47:11;42.10;;;21.40;;
4460;SDS011;2243;48.812;9.232;2022-12-18T15:49:43;45.07;;;22.03;;
4460;SDS011;2243;48.812;9.232;2022-12-18T15:52:14;41.37;;;22.30;;
4460;SDS011;2243;48.812;9.232;2022-12-18T15:54:56;41.20;;;22.17;;
4460;SDS011;2243;48.812;9.232;2022-12-18T15:57:46;37.97;;;19.67;;
4460;SDS011;2243;48.812;9.232;2022-12-18T16:00:17;47.97;;;28.30;;
4460;SDS011;2243;48.812;9.232;2022-12-18T16:02:48;44.10;;;24.60;;
4460;SDS011;2243;48.812;9.232;2022-12-18T16:05:20;43.43;;;21.33;;
4460;SDS011;2243;48.812;9.232;2022-12-18T16:07:53;35.27;;;19.93;;
4460;SDS011;2243;48.812;9.232;2022-12-18T16:10:24;41.90;;;20.63;;
4460;SDS011;2243;48.812;9.232;2022-12-18T16:12:56;36.67;;;19.40;;
4460;SDS011;2243;48.812;9.232;2022-12-18T16:15:27;39.03;;;20.20;;
4460;SDS011;2243;48.812;9.232;2022-12-18T16:17:58;44.23;;;20.90;;
4460;SDS011;2243;48.812;9.232;2022-12-18T16:20:29;36.93;;;19.10;;
4460;SDS011;2243;48.812;9.232;2022-12-18T16:23:00;39.93;;;19.80;;
4460;SDS011;2243;48.812;9.232;2022-12-18T16:25:31;39.47;;;20.40;;
4460;SDS011;2243;48.812;9.232;2022-12-18T16:28:03;41.40;;;20.50;;
4460;SDS011;2243;48.812;9.232;2022-12-18T16:30:34;39.70;;;20.70;;
4460;SDS011;2243;48.812;9.232;2022-12-18T16:33:08;47.10;;;21.93;;
4460;SDS011;2243;48.812;9.232;2022-12-18T16:35:41;54.30;;;25.20;;
4460;SDS011;2243;48.812;9.232;2022-12-18T16:38:12;47.13;;;24.27;;
4460;SDS011;2243;48.812;9.232;2022-12-18T16:40:42;44.87;;;22.17;;
4460;SDS011;2243;48.812;9.232;2022-12-18T16:43:33;53.30;;;22.87;;
4460;SDS011;2243;48.812;9.232;2022-12-18T16:46:04;36.30;;;20.60;;
4460;SDS011;2243;48.812;9.232;2022-12-18T16:48:35;42.00;;;22.57;;
4460;SDS011;2243;48.812;9.232;2022-12-18T16:51:06;45.90;;;22.80;;
4460;SDS011;2243;48.812;9.232;2022-12-18T16:53:37;40.40;;;21.13;;
4460;SDS011;2243;48.812;9.232;2022-12-18T16:56:09;43.57;;;23.27;;
4460;SDS011;2243;48.812;9.232;2022-12-18T16:58:40;39.07;;;20.53;;
4460;SDS011;2243;48.812;9.232;2022-12-18T17:01:11;43.07;;;22.13;;
4460;SDS011;2243;48.812;9.232;2022-12-18T17:03:42;39.33;;;20.60;;
4460;SDS011;2243;48.812;9.232;2022-12-18T17:06:15;42.27;;;20.83;;
4460;SDS011;2243;48.812;9.232;2022-12-18T17:08:48;39.50;;;22.00;;
4460;SDS011;2243;48.812;9.232;2022-12-18T17:11:31;35.00;;;19.77;;
4460;SDS011;2243;48.812;9.232;2022-12-18T17:14:12;40.50;;;21.10;;
4460;SDS011;2243;48.812;9.232;2022-12-18T17:16:48;41.10;;;20.90;;
4460;SDS011;2243;48.812;9.232;2022-12-18T17:19:41;50.63;;;22.73;;
4460;SDS011;2243;48.812;9.232;2022-12-18T17:22:12;41.30;;;20.80;;
4460;SDS011;2243;48.812;9.232;2022-12-18T17:24:43;41.03;;;21.43;;
4460;SDS011;2243;48.812;9.232;2022-12-18T17:27:16;36.33;;;19.27;;
4460;SDS011;2243;48.812;9.232;2022-12-18T17:29:47;38.27;;;21.00;;
4460;SDS011;2243;48.812;9.232;2022-12-18T17:32:18;41.90;;;19.50;;
4460;SDS011;2243;48.812;9.232;2022-12-18T17:34:49;36.77;;;20.83;;
4460;SDS011;2243;48.812;9.232;2022-12-18T17:37:21;34.30;;;18.10;;